sensor_id;sensor_type;location;lat;lon;timestamp;P1;durP1;ratioP1;P2;durP2;ratioP2
32228;SDS011;18717;48.034;11.186;2023-04-01T00:00:17;7.60;;;7.15;;
32228;SDS011;18717;48.034;11.186;2023-04-01T00:02:46;7.07;;;6.65;;
32228;SDS011;18717;48.034;11.186;2023-04-01T00:05:14;7.45;;;6.95;;
32228;SDS011;18717;48.034;11.186;2023-04-01T00:07:42;6.85;;;6.50;;
32228;SDS011;18717;48.034;11.186;2023-04-01T00:10:10;7.32;;;6.72;;
32228;SDS011;18717;48.034;11.186;2023-04-01T00:12:40;7.50;;;7.10;;
32228;SDS011;18717;48.034;11.186;2023-04-01T00:15:09;7.13;;;6.63;;
32228;SDS011;18717;48.034;11.186;2023-04-01T00:17:38;9.27;;;7.32;;
32228;SDS011;18717;48.034;11.186;2023-04-01T00:20:06;7.30;;;6.93;;
32228;SDS011;18717;48.034;11.186;2023-04-01T00:22:35;7.57;;;7.03;;
32228;SDS011;18717;48.034;11.186;2023-04-01T00:25:03;7.68;;;7.03;;
32228;SDS011;18717;48.034;11.186;2023-04-01T00:27:31;7.45;;;6.95;;
32228;SDS011;18717;48.034;11.186;2023-04-01T00:30:00;7.13;;;6.72;;
32228;SDS011;18717;48.034;11.186;2023-04-01T00:32:28;7.85;;;7.05;;
32228;SDS011;18717;48.034;11.186;2023-04-01T00:34:56;7.90;;;7.20;;
32228;SDS011;18717;48.034;11.186;2023-04-01T00:37:25;6.50;;;6.10;;
32228;SDS011;18717;48.034;11.186;2023-04-01T00:39:53;6.95;;;6.65;;
32228;SDS011;18717;48.034;11.186;2023-04-01T00:42:21;7.38;;;6.78;;
32228;SDS011;18717;48.034;11.186;2023-04-01T00:44:50;7.45;;;7.05;;
32228;SDS011;18717;48.034;11.186;2023-04-01T00:47:19;8.32;;;7.55;;
32228;SDS011;18717;48.034;11.186;2023-04-01T00:49:49;7.57;;;6.93;;
32228;SDS011;18717;48.034;11.186;2023-04-01T00:52:18;7.45;;;7.03;;
32228;SDS011;18717;48.034;11.186;2023-04-01T00:54:49;7.32;;;6.93;;
32228;SDS011;18717;48.034;11.186;2023-04-01T00:57:19;7.65;;;7.13;;
32228;SDS011;18717;48.034;11.186;2023-04-01T00:59:50;9.88;;;6.88;;
32228;SDS011;18717;48.034;11.186;2023-04-01T01:02:20;7.95;;;7.35;;
32228;SDS011;18717;48.034;11.186;2023-04-01T01:04:49;7.05;;;6.57;;
32228;SDS011;18717;48.034;11.186;2023-04-01T01:07:19;7.28;;;6.78;;
32228;SDS011;18717;48.034;11.186;2023-04-01T01:09:52;7.22;;;6.70;;
32228;SDS011;18717;48.034;11.186;2023-04-01T01:12:27;8.55;;;8.05;;
32228;SDS011;18717;48.034;11.186;2023-04-01T01:14:59;5.53;;;5.03;;
32228;SDS011;18717;48.034;11.186;2023-04-01T01:17:34;6.55;;;6.15;;
32228;SDS011;18717;48.034;11.186;2023-04-01T01:20:15;7.22;;;6.63;;
32228;SDS011;18717;48.034;11.186;2023-04-01T01:26:09;7.33;;;6.73;;
32228;SDS011;18717;48.034;11.186;2023-04-01T01:28:47;7.30;;;6.80;;
32228;SDS011;18717;48.034;11.186;2023-04-01T01:31:22;6.80;;;6.47;;
32228;SDS011;18717;48.034;11.186;2023-04-01T01:33:53;6.93;;;6.53;;
32228;SDS011;18717;48.034;11.186;2023-04-01T01:36:30;8.23;;;7.43;;
32228;SDS011;18717;48.034;11.186;2023-04-01T01:39:01;6.68;;;6.25;;
32228;SDS011;18717;48.034;11.186;2023-04-01T01:41:30;7.47;;;7.07;;
32228;SDS011;18717;48.034;11.186;2023-04-01T01:43:59;7.53;;;6.88;;
32228;SDS011;18717;48.034;11.186;2023-04-01T01:46:27;7.22;;;6.72;;
32228;SDS011;18717;48.034;11.186;2023-04-01T01:48:55;6.80;;;6.40;;
32228;SDS011;18717;48.034;11.186;2023-04-01T01:51:24;7.57;;;6.85;;
32228;SDS011;18717;48.034;11.186;2023-04-01T01:53:55;8.27;;;7.68;;
32228;SDS011;18717;48.034;11.186;2023-04-01T01:56:23;7.57;;;7.13;;
32228;SDS011;18717;48.034;11.186;2023-04-01T01:58:54;6.63;;;6.30;;
32228;SDS011;18717;48.034;11.186;2023-04-01T02:01:24;6.95;;;6.55;;
32228;SDS011;18717;48.034;11.186;2023-04-01T02:03:53;6.88;;;6.47;;
32228;SDS011;18717;48.034;11.186;2023-04-01T02:06:21;7.25;;;6.85;;
32228;SDS011;18717;48.034;11.186;2023-04-01T02:08:51;6.78;;;6.50;;
32228;SDS011;18717;48.034;11.186;2023-04-01T02:11:24;6.90;;;6.60;;
32228;SDS011;18717;48.034;11.186;2023-04-01T02:13:54;6.88;;;6.57;;
32228;SDS011;18717;48.034;11.186;2023-04-01T02:16:23;6.63;;;6.22;;
32228;SDS011;18717;48.034;11.186;2023-04-01T02:18:54;6.85;;;6.47;;
32228;SDS011;18717;48.034;11.186;2023-04-01T02:21:23;7.57;;;6.90;;
32228;SDS011;18717;48.034;11.186;2023-04-01T02:23:52;6.80;;;6.60;;
32228;SDS011;18717;48.034;11.186;2023-04-01T02:26:20;7.15;;;6.65;;
32228;SDS011;18717;48.034;11.186;2023-04-01T02:28:51;7.00;;;6.60;;
32228;SDS011;18717;48.034;11.186;2023-04-01T02:31:20;6.63;;;6.32;;
32228;SDS011;18717;48.034;11.186;2023-04-01T02:33:49;7.28;;;6.68;;
32228;SDS011;18717;48.034;11.186;2023-04-01T02:36:17;7.25;;;6.85;;
32228;SDS011;18717;48.034;11.186;2023-04-01T02:38:45;6.78;;;6.43;;
32228;SDS011;18717;48.034;11.186;2023-04-01T02:41:14;6.68;;;6.43;;
32228;SDS011;18717;48.034;11.186;2023-04-01T02:43:43;6.32;;;6.13;;
32228;SDS011;18717;48.034;11.186;2023-04-01T02:46:10;7.00;;;6.50;;
32228;SDS011;18717;48.034;11.186;2023-04-01T02:48:38;7.35;;;7.00;;
32228;SDS011;18717;48.034;11.186;2023-04-01T02:51:06;6.93;;;6.57;;
32228;SDS011;18717;48.034;11.186;2023-04-01T02:53:33;6.57;;;6.13;;
32228;SDS011;18717;48.034;11.186;2023-04-01T02:56:01;7.38;;;6.95;;
32228;SDS011;18717;48.034;11.186;2023-04-01T02:58:29;7.03;;;6.72;;
32228;SDS011;18717;48.034;11.186;2023-04-01T03:00:58;7.30;;;7.00;;
32228;SDS011;18717;48.034;11.186;2023-04-01T03:03:26;7.72;;;7.38;;
32228;SDS011;18717;48.034;11.186;2023-04-01T03:05:54;7.00;;;6.60;;
32228;SDS011;18717;48.034;11.186;2023-04-01T03:08:22;7.00;;;6.80;;
32228;SDS011;18717;48.034;11.186;2023-04-01T03:10:50;6.35;;;6.15;;
32228;SDS011;18717;48.034;11.186;2023-04-01T03:13:17;6.28;;;6.07;;
32228;SDS011;18717;48.034;11.186;2023-04-01T03:15:45;6.75;;;6.50;;
32228;SDS011;18717;48.034;11.186;2023-04-01T03:18:14;6.90;;;6.65;;
32228;SDS011;18717;48.034;11.186;2023-04-01T03:20:42;6.47;;;6.22;;
32228;SDS011;18717;48.034;11.186;2023-04-01T03:23:10;7.07;;;6.78;;
32228;SDS011;18717;48.034;11.186;2023-04-01T03:25:37;7.05;;;6.60;;
32228;SDS011;18717;48.034;11.186;2023-04-01T03:28:05;6.80;;;6.50;;
32228;SDS011;18717;48.034;11.186;2023-04-01T03:30:32;7.07;;;6.78;;
32228;SDS011;18717;48.034;11.186;2023-04-01T03:33:00;6.40;;;6.10;;
32228;SDS011;18717;48.034;11.186;2023-04-01T03:35:30;6.95;;;6.55;;
32228;SDS011;18717;48.034;11.186;2023-04-01T03:37:58;6.70;;;6.30;;
32228;SDS011;18717;48.034;11.186;2023-04-01T03:40:26;6.95;;;6.65;;
32228;SDS011;18717;48.034;11.186;2023-04-01T03:42:53;7.35;;;6.88;;
32228;SDS011;18717;48.034;11.186;2023-04-01T03:45:22;7.30;;;7.00;;
32228;SDS011;18717;48.034;11.186;2023-04-01T03:47:50;7.10;;;6.80;;
32228;SDS011;18717;48.034;11.186;2023-04-01T03:50:17;7.00;;;6.70;;
32228;SDS011;18717;48.034;11.186;2023-04-01T03:52:47;7.30;;;6.57;;
32228;SDS011;18717;48.034;11.186;2023-04-01T03:55:14;6.70;;;6.50;;
32228;SDS011;18717;48.034;11.186;2023-04-01T03:57:44;7.18;;;6.88;;
32228;SDS011;18717;48.034;11.186;2023-04-01T04:00:12;7.13;;;6.82;;
32228;SDS011;18717;48.034;11.186;2023-04-01T04:02:40;6.47;;;6.18;;
32228;SDS011;18717;48.034;11.186;2023-04-01T04:05:07;6.43;;;6.20;;
32228;SDS011;18717;48.034;11.186;2023-04-01T04:07:35;6.32;;;6.03;;
32228;SDS011;18717;48.034;11.186;2023-04-01T04:10:05;6.57;;;6.38;;
32228;SDS011;18717;48.034;11.186;2023-04-01T04:12:34;7.30;;;6.68;;
32228;SDS011;18717;48.034;11.186;2023-04-01T04:15:01;7.15;;;6.65;;
32228;SDS011;18717;48.034;11.186;2023-04-01T04:17:29;6.97;;;6.65;;
32228;SDS011;18717;48.034;11.186;2023-04-01T04:19:57;6.95;;;6.65;;
32228;SDS011;18717;48.034;11.186;2023-04-01T04:22:24;7.25;;;6.95;;
32228;SDS011;18717;48.034;11.186;2023-04-01T04:24:52;6.45;;;6.25;;
32228;SDS011;18717;48.034;11.186;2023-04-01T04:27:21;7.05;;;6.75;;
32228;SDS011;18717;48.034;11.186;2023-04-01T04:29:48;6.70;;;6.47;;
32228;SDS011;18717;48.034;11.186;2023-04-01T04:32:16;6.93;;;6.63;;
32228;SDS011;18717;48.034;11.186;2023-04-01T04:34:44;6.75;;;6.35;;
32228;SDS011;18717;48.034;11.186;2023-04-01T04:37:11;7.07;;;6.68;;
32228;SDS011;18717;48.034;11.186;2023-04-01T04:39:39;6.90;;;6.60;;
32228;SDS011;18717;48.034;11.186;2023-04-01T04:42:07;6.97;;;6.50;;
32228;SDS011;18717;48.034;11.186;2023-04-01T04:44:36;6.40;;;6.10;;
32228;SDS011;18717;48.034;11.186;2023-04-01T04:47:04;7.45;;;6.95;;
32228;SDS011;18717;48.034;11.186;2023-04-01T04:49:31;6.68;;;6.28;;
32228;SDS011;18717;48.034;11.186;2023-04-01T04:51:59;7.53;;;7.13;;
32228;SDS011;18717;48.034;11.186;2023-04-01T04:54:27;7.10;;;6.50;;
32228;SDS011;18717;48.034;11.186;2023-04-01T04:56:54;6.63;;;6.32;;
32228;SDS011;18717;48.034;11.186;2023-04-01T04:59:22;6.57;;;6.10;;
32228;SDS011;18717;48.034;11.186;2023-04-01T05:01:51;6.95;;;6.55;;
32228;SDS011;18717;48.034;11.186;2023-04-01T05:04:19;7.25;;;6.82;;
32228;SDS011;18717;48.034;11.186;2023-04-01T05:06:46;6.88;;;6.40;;
32228;SDS011;18717;48.034;11.186;2023-04-01T05:09:14;6.40;;;6.10;;
32228;SDS011;18717;48.034;11.186;2023-04-01T05:11:42;8.00;;;6.70;;
32228;SDS011;18717;48.034;11.186;2023-04-01T05:14:11;7.43;;;7.00;;
32228;SDS011;18717;48.034;11.186;2023-04-01T05:16:40;6.75;;;6.50;;
32228;SDS011;18717;48.034;11.186;2023-04-01T05:19:09;8.05;;;7.57;;
32228;SDS011;18717;48.034;11.186;2023-04-01T05:21:37;6.80;;;6.50;;
32228;SDS011;18717;48.034;11.186;2023-04-01T05:24:07;7.00;;;6.47;;
32228;SDS011;18717;48.034;11.186;2023-04-01T05:26:35;7.45;;;6.95;;
32228;SDS011;18717;48.034;11.186;2023-04-01T05:29:03;8.32;;;6.95;;
32228;SDS011;18717;48.034;11.186;2023-04-01T05:31:31;7.43;;;6.78;;
32228;SDS011;18717;48.034;11.186;2023-04-01T05:33:59;7.60;;;6.85;;
32228;SDS011;18717;48.034;11.186;2023-04-01T05:36:28;9.88;;;7.30;;
32228;SDS011;18717;48.034;11.186;2023-04-01T05:38:56;7.95;;;7.43;;
32228;SDS011;18717;48.034;11.186;2023-04-01T05:41:23;7.35;;;6.95;;
32228;SDS011;18717;48.034;11.186;2023-04-01T05:43:51;7.00;;;6.40;;
32228;SDS011;18717;48.034;11.186;2023-04-01T05:46:19;7.45;;;7.05;;
32228;SDS011;18717;48.034;11.186;2023-04-01T05:48:47;7.15;;;6.65;;
32228;SDS011;18717;48.034;11.186;2023-04-01T05:51:15;7.10;;;6.70;;
32228;SDS011;18717;48.034;11.186;2023-04-01T05:53:44;7.53;;;6.90;;
32228;SDS011;18717;48.034;11.186;2023-04-01T05:56:12;7.15;;;6.50;;
32228;SDS011;18717;48.034;11.186;2023-04-01T05:58:39;7.28;;;6.70;;
32228;SDS011;18717;48.034;11.186;2023-04-01T06:01:08;7.15;;;6.65;;
32228;SDS011;18717;48.034;11.186;2023-04-01T06:03:41;8.18;;;7.38;;
32228;SDS011;18717;48.034;11.186;2023-04-01T06:06:11;7.75;;;7.20;;
32228;SDS011;18717;48.034;11.186;2023-04-01T06:08:41;8.20;;;7.18;;
32228;SDS011;18717;48.034;11.186;2023-04-01T06:11:15;6.95;;;6.53;;
32228;SDS011;18717;48.034;11.186;2023-04-01T06:13:50;7.57;;;6.55;;
32228;SDS011;18717;48.034;11.186;2023-04-01T06:16:28;7.35;;;7.05;;
32228;SDS011;18717;48.034;11.186;2023-04-01T06:19:07;8.20;;;6.85;;
32228;SDS011;18717;48.034;11.186;2023-04-01T06:21:55;7.53;;;7.03;;
32228;SDS011;18717;48.034;11.186;2023-04-01T06:24:59;7.30;;;6.80;;
32228;SDS011;18717;48.034;11.186;2023-04-01T06:27:47;7.32;;;7.00;;
32228;SDS011;18717;48.034;11.186;2023-04-01T06:30:25;6.95;;;6.65;;
32228;SDS011;18717;48.034;11.186;2023-04-01T06:33:08;9.57;;;7.47;;
32228;SDS011;18717;48.034;11.186;2023-04-01T06:35:53;7.75;;;7.00;;
32228;SDS011;18717;48.034;11.186;2023-04-01T06:38:31;7.43;;;6.82;;
32228;SDS011;18717;48.034;11.186;2023-04-01T06:44:14;7.30;;;7.00;;
32228;SDS011;18717;48.034;11.186;2023-04-01T06:46:46;7.75;;;7.20;;
32228;SDS011;18717;48.034;11.186;2023-04-01T06:49:24;8.18;;;7.63;;
32228;SDS011;18717;48.034;11.186;2023-04-01T06:51:59;7.45;;;7.13;;
32228;SDS011;18717;48.034;11.186;2023-04-01T06:54:32;7.55;;;7.15;;
32228;SDS011;18717;48.034;11.186;2023-04-01T06:57:05;8.10;;;7.60;;
32228;SDS011;18717;48.034;11.186;2023-04-01T06:59:39;7.90;;;7.40;;
32228;SDS011;18717;48.034;11.186;2023-04-01T07:02:13;7.57;;;7.05;;
32228;SDS011;18717;48.034;11.186;2023-04-01T07:04:46;7.63;;;7.13;;
32228;SDS011;18717;48.034;11.186;2023-04-01T07:07:17;7.35;;;7.05;;
32228;SDS011;18717;48.034;11.186;2023-04-01T07:09:49;7.53;;;7.10;;
32228;SDS011;18717;48.034;11.186;2023-04-01T07:12:21;7.57;;;7.28;;
32228;SDS011;18717;48.034;11.186;2023-04-01T07:14:53;7.25;;;7.00;;
32228;SDS011;18717;48.034;11.186;2023-04-01T07:17:22;7.95;;;7.30;;
32228;SDS011;18717;48.034;11.186;2023-04-01T07:19:52;7.32;;;6.88;;
32228;SDS011;18717;48.034;11.186;2023-04-01T07:22:26;7.57;;;7.10;;
32228;SDS011;18717;48.034;11.186;2023-04-01T07:24:56;7.70;;;7.10;;
32228;SDS011;18717;48.034;11.186;2023-04-01T07:27:26;8.20;;;7.50;;
32228;SDS011;18717;48.034;11.186;2023-04-01T07:29:55;7.55;;;7.00;;
32228;SDS011;18717;48.034;11.186;2023-04-01T07:32:26;7.53;;;7.13;;
32228;SDS011;18717;48.034;11.186;2023-04-01T07:38:01;7.75;;;7.25;;
32228;SDS011;18717;48.034;11.186;2023-04-01T07:40:38;7.82;;;7.30;;
32228;SDS011;18717;48.034;11.186;2023-04-01T07:43:13;8.23;;;7.82;;
32228;SDS011;18717;48.034;11.186;2023-04-01T07:45:48;7.85;;;7.38;;
32228;SDS011;18717;48.034;11.186;2023-04-01T07:48:23;7.72;;;7.32;;
32228;SDS011;18717;48.034;11.186;2023-04-01T07:50:55;7.32;;;7.03;;
32228;SDS011;18717;48.034;11.186;2023-04-01T07:53:27;8.27;;;7.93;;
32228;SDS011;18717;48.034;11.186;2023-04-01T07:58:30;7.57;;;7.28;;
32228;SDS011;18717;48.034;11.186;2023-04-01T08:01:05;7.60;;;7.30;;
32228;SDS011;18717;48.034;11.186;2023-04-01T08:03:43;7.68;;;7.20;;
32228;SDS011;18717;48.034;11.186;2023-04-01T08:06:24;7.40;;;7.10;;
32228;SDS011;18717;48.034;11.186;2023-04-01T08:08:57;8.45;;;7.82;;
32228;SDS011;18717;48.034;11.186;2023-04-01T08:11:33;7.90;;;7.40;;
32228;SDS011;18717;48.034;11.186;2023-04-01T08:14:12;7.82;;;7.32;;
32228;SDS011;18717;48.034;11.186;2023-04-01T08:16:46;7.50;;;7.20;;
32228;SDS011;18717;48.034;11.186;2023-04-01T08:19:21;8.10;;;7.70;;
32228;SDS011;18717;48.034;11.186;2023-04-01T08:21:57;7.55;;;7.25;;
32228;SDS011;18717;48.034;11.186;2023-04-01T08:24:28;7.57;;;7.18;;
32228;SDS011;18717;48.034;11.186;2023-04-01T08:27:15;7.57;;;7.28;;
32228;SDS011;18717;48.034;11.186;2023-04-01T08:32:16;7.75;;;7.25;;
32228;SDS011;18717;48.034;11.186;2023-04-01T08:38:00;7.72;;;7.43;;
32228;SDS011;18717;48.034;11.186;2023-04-01T08:40:37;7.85;;;7.55;;
32228;SDS011;18717;48.034;11.186;2023-04-01T08:43:15;7.57;;;7.28;;
32228;SDS011;18717;48.034;11.186;2023-04-01T08:45:55;7.80;;;7.40;;
32228;SDS011;18717;48.034;11.186;2023-04-01T08:48:32;7.65;;;7.35;;
32228;SDS011;18717;48.034;11.186;2023-04-01T08:51:10;7.72;;;7.15;;
32228;SDS011;18717;48.034;11.186;2023-04-01T08:53:56;7.95;;;7.65;;
32228;SDS011;18717;48.034;11.186;2023-04-01T08:56:33;8.15;;;7.75;;
32228;SDS011;18717;48.034;11.186;2023-04-01T08:59:08;8.05;;;7.75;;
32228;SDS011;18717;48.034;11.186;2023-04-01T09:02:10;8.55;;;8.15;;
32228;SDS011;18717;48.034;11.186;2023-04-01T09:04:55;7.80;;;7.45;;
32228;SDS011;18717;48.034;11.186;2023-04-01T09:07:45;8.10;;;7.78;;
32228;SDS011;18717;48.034;11.186;2023-04-01T09:10:21;8.13;;;7.82;;
32228;SDS011;18717;48.034;11.186;2023-04-01T09:12:59;8.43;;;8.13;;
32228;SDS011;18717;48.034;11.186;2023-04-01T09:21:51;8.48;;;8.10;;
32228;SDS011;18717;48.034;11.186;2023-04-01T09:27:43;7.80;;;7.50;;
32228;SDS011;18717;48.034;11.186;2023-04-01T09:36:10;8.60;;;8.00;;
32228;SDS011;18717;48.034;11.186;2023-04-01T09:38:47;7.97;;;7.68;;
32228;SDS011;18717;48.034;11.186;2023-04-01T09:41:23;8.45;;;8.15;;
32228;SDS011;18717;48.034;11.186;2023-04-01T09:43:58;7.95;;;7.65;;
32228;SDS011;18717;48.034;11.186;2023-04-01T09:46:38;8.10;;;7.80;;
32228;SDS011;18717;48.034;11.186;2023-04-01T09:49:24;8.70;;;8.07;;
32228;SDS011;18717;48.034;11.186;2023-04-01T09:52:04;8.18;;;7.88;;
32228;SDS011;18717;48.034;11.186;2023-04-01T09:54:46;8.02;;;7.72;;
32228;SDS011;18717;48.034;11.186;2023-04-01T10:00:20;8.20;;;7.90;;
32228;SDS011;18717;48.034;11.186;2023-04-01T10:09:29;8.18;;;7.82;;
32228;SDS011;18717;48.034;11.186;2023-04-01T10:15:29;8.55;;;8.15;;
32228;SDS011;18717;48.034;11.186;2023-04-01T10:18:09;8.77;;;8.48;;
32228;SDS011;18717;48.034;11.186;2023-04-01T10:27:07;8.30;;;8.00;;
32228;SDS011;18717;48.034;11.186;2023-04-01T10:36:27;8.43;;;8.13;;
32228;SDS011;18717;48.034;11.186;2023-04-01T10:39:12;8.55;;;8.25;;
32228;SDS011;18717;48.034;11.186;2023-04-01T10:41:53;8.40;;;8.10;;
32228;SDS011;18717;48.034;11.186;2023-04-01T10:50:35;7.90;;;7.60;;
32228;SDS011;18717;48.034;11.186;2023-04-01T11:02:40;8.02;;;7.72;;
32228;SDS011;18717;48.034;11.186;2023-04-01T11:09:05;7.63;;;7.32;;
32228;SDS011;18717;48.034;11.186;2023-04-01T11:17:57;7.70;;;7.40;;
32228;SDS011;18717;48.034;11.186;2023-04-01T11:23:47;8.55;;;8.25;;
32228;SDS011;18717;48.034;11.186;2023-04-01T11:26:32;8.52;;;8.20;;
32228;SDS011;18717;48.034;11.186;2023-04-01T11:29:09;8.23;;;7.93;;
32228;SDS011;18717;48.034;11.186;2023-04-01T11:31:51;8.25;;;7.95;;
32228;SDS011;18717;48.034;11.186;2023-04-01T11:37:37;7.95;;;7.65;;
32228;SDS011;18717;48.034;11.186;2023-04-01T11:40:14;7.70;;;7.40;;
32228;SDS011;18717;48.034;11.186;2023-04-01T11:42:51;7.82;;;7.53;;
32228;SDS011;18717;48.034;11.186;2023-04-01T11:45:28;8.68;;;8.38;;
32228;SDS011;18717;48.034;11.186;2023-04-01T11:48:08;8.07;;;7.78;;
32228;SDS011;18717;48.034;11.186;2023-04-01T11:50:46;8.27;;;7.97;;
32228;SDS011;18717;48.034;11.186;2023-04-01T11:53:26;7.78;;;7.47;;
32228;SDS011;18717;48.034;11.186;2023-04-01T11:56:02;7.63;;;7.32;;
32228;SDS011;18717;48.034;11.186;2023-04-01T11:58:41;7.72;;;7.43;;
32228;SDS011;18717;48.034;11.186;2023-04-01T12:01:27;8.10;;;7.80;;
32228;SDS011;18717;48.034;11.186;2023-04-01T12:04:23;7.75;;;7.45;;
32228;SDS011;18717;48.034;11.186;2023-04-01T12:07:02;7.78;;;7.47;;
32228;SDS011;18717;48.034;11.186;2023-04-01T12:09:36;7.68;;;7.38;;
32228;SDS011;18717;48.034;11.186;2023-04-01T12:12:12;7.80;;;7.47;;
32228;SDS011;18717;48.034;11.186;2023-04-01T12:14:44;7.35;;;7.05;;
32228;SDS011;18717;48.034;11.186;2023-04-01T12:17:21;7.20;;;7.00;;
32228;SDS011;18717;48.034;11.186;2023-04-01T12:19:56;7.57;;;7.28;;
32228;SDS011;18717;48.034;11.186;2023-04-01T12:22:29;7.15;;;6.95;;
32228;SDS011;18717;48.034;11.186;2023-04-01T12:25:11;7.45;;;7.15;;
32228;SDS011;18717;48.034;11.186;2023-04-01T12:27:45;7.55;;;7.25;;
32228;SDS011;18717;48.034;11.186;2023-04-01T12:33:14;7.32;;;7.03;;
32228;SDS011;18717;48.034;11.186;2023-04-01T12:35:53;7.60;;;7.30;;
32228;SDS011;18717;48.034;11.186;2023-04-01T12:38:26;7.10;;;6.90;;
32228;SDS011;18717;48.034;11.186;2023-04-01T12:41:05;8.13;;;7.75;;
32228;SDS011;18717;48.034;11.186;2023-04-01T12:46:51;8.05;;;7.70;;
32228;SDS011;18717;48.034;11.186;2023-04-01T12:52:18;7.55;;;7.25;;
32228;SDS011;18717;48.034;11.186;2023-04-01T12:54:59;7.70;;;7.40;;
32228;SDS011;18717;48.034;11.186;2023-04-01T13:00:29;7.43;;;7.13;;
32228;SDS011;18717;48.034;11.186;2023-04-01T13:03:04;7.07;;;6.82;;
32228;SDS011;18717;48.034;11.186;2023-04-01T13:08:38;7.47;;;7.18;;
32228;SDS011;18717;48.034;11.186;2023-04-01T13:11:09;7.88;;;7.47;;
32228;SDS011;18717;48.034;11.186;2023-04-01T13:13:41;7.13;;;6.85;;
32228;SDS011;18717;48.034;11.186;2023-04-01T13:16:15;7.30;;;7.00;;
32228;SDS011;18717;48.034;11.186;2023-04-01T13:18:49;7.93;;;7.53;;
32228;SDS011;18717;48.034;11.186;2023-04-01T13:21:23;7.40;;;7.10;;
32228;SDS011;18717;48.034;11.186;2023-04-01T13:23:56;8.13;;;7.72;;
32228;SDS011;18717;48.034;11.186;2023-04-01T13:26:29;7.85;;;7.55;;
32228;SDS011;18717;48.034;11.186;2023-04-01T13:29:04;7.97;;;7.68;;
32228;SDS011;18717;48.034;11.186;2023-04-01T13:31:44;7.40;;;7.10;;
32228;SDS011;18717;48.034;11.186;2023-04-01T13:34:25;7.72;;;7.43;;
32228;SDS011;18717;48.034;11.186;2023-04-01T13:37:03;7.85;;;7.55;;
32228;SDS011;18717;48.034;11.186;2023-04-01T13:39:40;7.90;;;7.60;;
32228;SDS011;18717;48.034;11.186;2023-04-01T13:42:20;7.90;;;7.60;;
32228;SDS011;18717;48.034;11.186;2023-04-01T13:44:53;7.60;;;7.30;;
32228;SDS011;18717;48.034;11.186;2023-04-01T13:47:27;7.70;;;7.40;;
32228;SDS011;18717;48.034;11.186;2023-04-01T13:56:16;5.88;;;5.57;;
32228;SDS011;18717;48.034;11.186;2023-04-01T13:58:55;8.10;;;7.70;;
32228;SDS011;18717;48.034;11.186;2023-04-01T14:01:33;7.78;;;7.43;;
32228;SDS011;18717;48.034;11.186;2023-04-01T14:04:18;7.78;;;7.47;;
32228;SDS011;18717;48.034;11.186;2023-04-01T14:07:00;7.53;;;7.22;;
32228;SDS011;18717;48.034;11.186;2023-04-01T14:09:40;7.13;;;6.82;;
32228;SDS011;18717;48.034;11.186;2023-04-01T14:12:14;7.25;;;6.95;;
32228;SDS011;18717;48.034;11.186;2023-04-01T14:14:53;8.20;;;7.80;;
32228;SDS011;18717;48.034;11.186;2023-04-01T14:17:35;7.57;;;7.30;;
32228;SDS011;18717;48.034;11.186;2023-04-01T14:25:29;7.20;;;6.90;;
32228;SDS011;18717;48.034;11.186;2023-04-01T14:28:09;7.80;;;7.50;;
32228;SDS011;18717;48.034;11.186;2023-04-01T14:30:53;8.10;;;7.75;;
32228;SDS011;18717;48.034;11.186;2023-04-01T14:33:37;7.60;;;7.30;;
32228;SDS011;18717;48.034;11.186;2023-04-01T14:41:38;7.97;;;7.68;;
32228;SDS011;18717;48.034;11.186;2023-04-01T14:44:23;7.70;;;7.40;;
32228;SDS011;18717;48.034;11.186;2023-04-01T14:47:02;7.63;;;7.32;;
32228;SDS011;18717;48.034;11.186;2023-04-01T14:49:52;7.40;;;7.10;;
32228;SDS011;18717;48.034;11.186;2023-04-01T14:52:23;7.55;;;7.25;;
32228;SDS011;18717;48.034;11.186;2023-04-01T14:54:53;7.18;;;6.88;;
32228;SDS011;18717;48.034;11.186;2023-04-01T14:57:23;7.63;;;7.32;;
32228;SDS011;18717;48.034;11.186;2023-04-01T14:59:53;8.05;;;7.75;;
32228;SDS011;18717;48.034;11.186;2023-04-01T15:02:33;7.40;;;7.10;;
32228;SDS011;18717;48.034;11.186;2023-04-01T15:05:13;7.95;;;7.65;;
32228;SDS011;18717;48.034;11.186;2023-04-01T15:07:55;7.80;;;7.50;;
32228;SDS011;18717;48.034;11.186;2023-04-01T15:10:35;7.50;;;7.20;;
32228;SDS011;18717;48.034;11.186;2023-04-01T15:13:19;7.25;;;7.05;;
32228;SDS011;18717;48.034;11.186;2023-04-01T15:15:58;7.32;;;7.03;;
32228;SDS011;18717;48.034;11.186;2023-04-01T15:18:34;7.53;;;7.22;;
32228;SDS011;18717;48.034;11.186;2023-04-01T15:21:11;8.23;;;7.93;;
32228;SDS011;18717;48.034;11.186;2023-04-01T15:23:46;7.72;;;7.43;;
32228;SDS011;18717;48.034;11.186;2023-04-01T15:26:25;8.15;;;7.85;;
32228;SDS011;18717;48.034;11.186;2023-04-01T15:29:03;7.72;;;7.43;;
32228;SDS011;18717;48.034;11.186;2023-04-01T15:31:37;7.38;;;7.07;;
32228;SDS011;18717;48.034;11.186;2023-04-01T15:34:13;7.82;;;7.53;;
32228;SDS011;18717;48.034;11.186;2023-04-01T15:36:49;7.60;;;7.30;;
32228;SDS011;18717;48.034;11.186;2023-04-01T15:39:22;7.45;;;7.15;;
32228;SDS011;18717;48.034;11.186;2023-04-01T15:41:56;8.02;;;7.50;;
32228;SDS011;18717;48.034;11.186;2023-04-01T15:44:37;8.13;;;7.72;;
32228;SDS011;18717;48.034;11.186;2023-04-01T15:47:23;8.18;;;7.78;;
32228;SDS011;18717;48.034;11.186;2023-04-01T15:53:27;8.23;;;7.93;;
32228;SDS011;18717;48.034;11.186;2023-04-01T15:56:16;7.40;;;7.10;;
32228;SDS011;18717;48.034;11.186;2023-04-01T15:58:52;7.85;;;7.55;;
32228;SDS011;18717;48.034;11.186;2023-04-01T16:01:29;7.90;;;7.53;;
32228;SDS011;18717;48.034;11.186;2023-04-01T16:04:06;8.05;;;7.75;;
32228;SDS011;18717;48.034;11.186;2023-04-01T16:06:48;8.68;;;8.27;;
32228;SDS011;18717;48.034;11.186;2023-04-01T16:12:32;7.65;;;7.35;;
32228;SDS011;18717;48.034;11.186;2023-04-01T16:15:11;8.52;;;8.10;;
32228;SDS011;18717;48.034;11.186;2023-04-01T16:17:49;7.57;;;7.28;;
32228;SDS011;18717;48.034;11.186;2023-04-01T16:20:39;8.05;;;7.60;;
32228;SDS011;18717;48.034;11.186;2023-04-01T16:23:12;7.50;;;7.10;;
32228;SDS011;18717;48.034;11.186;2023-04-01T16:25:47;8.27;;;7.95;;
32228;SDS011;18717;48.034;11.186;2023-04-01T16:28:18;7.90;;;7.60;;
32228;SDS011;18717;48.034;11.186;2023-04-01T16:33:22;7.40;;;7.10;;
32228;SDS011;18717;48.034;11.186;2023-04-01T16:35:55;7.90;;;7.60;;
32228;SDS011;18717;48.034;11.186;2023-04-01T16:38:26;8.18;;;7.78;;
32228;SDS011;18717;48.034;11.186;2023-04-01T16:41:07;8.27;;;7.80;;
32228;SDS011;18717;48.034;11.186;2023-04-01T16:43:40;7.90;;;7.47;;
32228;SDS011;18717;48.034;11.186;2023-04-01T16:46:15;7.65;;;7.20;;
32228;SDS011;18717;48.034;11.186;2023-04-01T16:48:58;7.70;;;7.40;;
32228;SDS011;18717;48.034;11.186;2023-04-01T16:51:32;7.35;;;7.05;;
32228;SDS011;18717;48.034;11.186;2023-04-01T16:54:04;7.88;;;7.57;;
32228;SDS011;18717;48.034;11.186;2023-04-01T16:56:39;7.70;;;7.40;;
32228;SDS011;18717;48.034;11.186;2023-04-01T16:59:14;7.82;;;7.53;;
32228;SDS011;18717;48.034;11.186;2023-04-01T17:01:47;8.02;;;7.47;;
32228;SDS011;18717;48.034;11.186;2023-04-01T17:04:20;7.60;;;7.10;;
32228;SDS011;18717;48.034;11.186;2023-04-01T17:06:53;7.30;;;7.03;;
32228;SDS011;18717;48.034;11.186;2023-04-01T17:09:30;8.20;;;7.80;;
32228;SDS011;18717;48.034;11.186;2023-04-01T17:12:06;8.18;;;7.78;;
32228;SDS011;18717;48.034;11.186;2023-04-01T17:14:39;8.38;;;8.07;;
32228;SDS011;18717;48.034;11.186;2023-04-01T17:17:14;7.70;;;7.40;;
32228;SDS011;18717;48.034;11.186;2023-04-01T17:19:49;7.90;;;7.43;;
32228;SDS011;18717;48.034;11.186;2023-04-01T17:22:29;7.72;;;7.43;;